TENO2: Tenkiller Lake

Data processed at Mon Apr 23 2018 22:05


All information presented herein is the property of the government of the United States of America and may be revised or deleted at any time without prior notice.
Dissemination of this information without the expressed written consent of the Public Affairs Office, Tulsa District U.S. Army Corps of Engineers is strictly prohibited.
These data are gathered electronically and, as presented, have not undergone any form of quality control. These data are not guaranteed to be valid or correct.
Go to home page.
Go to station list.

Upstream stations:

Downstream station:
Previous Day
Next Day
Current Day
    
SHEF ID:       TENO2     Tenkiller Lake
STATION TYPE:  Reservoir
Normal Pool:  Bottom =   594.50, Top =   632.00

               PRECIP PRECIP(A) ELEVATION   STORAGE   TW-ELEV    INFLOW   RELEASE  AIR-TEMP  WIND-DIRWIND-SPEED REL-HUMID SOLAR-RAD   VOLTAGE  BAT-LOAD
                   in        in        ft     ac-ft        ft       cfs       cfs         F       deg       mph         %      W/m2      volt      volt
              Ccp-Rev   Ccp-Rev   Ccp-Rev   Ccp-Rev   Ccp-Rev  Regi-Rev  Regi-Rev   Ccp-Rev   Ccp-Rev   Ccp-Rev   Ccp-Rev   Ccp-Rev   Ccp-Rev   Ccp-Rev
(US/Central)
04/23 00:00      0.00      0.00    633.04    682445    487.20       154      3500     54.50    210.00      1.21     99.56      0.00     13.74     13.30
04/23 01:00      0.00      0.00    633.04    682445    487.10      -901      -901     54.61    211.30      0.43     99.74      0.00     13.74     13.30
04/23 02:00      0.44      0.43    633.04    682445    487.20      -901      -901     54.27    243.70      0.35     99.80      0.00     13.74     13.36
04/23 03:00      0.00      0.00    633.02    682182    487.17      -901      -901     54.05    260.60      0.33     99.80      0.00     13.74     13.36
04/23 04:00      0.00      0.00    633.01    682050    486.96      -901      -901     53.83    271.00      0.36     99.68      0.00     13.75     13.36
04/23 05:00      0.00      0.00    633.01    682050    487.22      -901      -901     53.94    228.90      1.03     99.62      0.00     13.74     13.30
04/23 06:00      0.00      0.00    633.02    682182    486.54      -901      -901     52.30    251.60      0.52     99.74      1.00     13.75     13.30
04/23 07:00      0.00      0.00    633.03    682313    483.06      -901      -901     53.29    223.40      0.95     93.58      1.00     13.74     13.30
04/23 08:00      0.00      0.00    633.03    682313    482.88      -901      -901     53.73    227.00      0.34     93.33     37.00     13.74     13.24
04/23 09:00      0.00      0.00    633.06    682709    482.84      -901      -901     54.61    217.30      0.60     92.54     62.00     13.13     13.24
04/23 10:00      0.00      0.00    633.07    682841    482.85      -901      -901     56.03    201.00      0.42     89.55    117.00     13.74     12.89
04/23 11:00      0.00      0.00    633.10    683236    482.85      -901      -901     58.57    169.00      0.89     83.69    301.00     13.74     13.12
04/23 12:00      0.00      0.00    633.10    683236    482.84      -901      -901     62.51    165.70      2.43     74.90    761.00     13.74     13.12
04/23 13:00      0.00      0.00    633.12    683500    482.84      -901      -901     64.17    144.20      2.06     69.53    486.00     13.74     13.12
04/23 14:00      0.00      0.00    633.13    683632    482.82      -901      -901     66.04    154.00      1.80     62.57    385.00     13.74     13.12
04/23 15:00      0.00      0.00    633.16    684027    482.84      -901      -901     69.66    173.00      2.29     43.04    815.00     13.74     13.12
04/23 16:00      0.00      0.00    633.18    684291    482.82      -901      -901     70.65    166.40      2.95     38.70    717.00     13.74     13.12
04/23 17:00      0.00      0.00    633.19    684422    482.82      -901      -901     71.74    173.90      3.45     37.48    603.00     13.74     13.18
04/23 18:00      0.00      0.00    633.21    684686    482.82      -901      -901     72.41    176.80      2.10     34.49    396.00     13.74     13.18
04/23 19:00      0.00      0.00    633.22    684818    482.82      -901      -901     70.43    213.80      2.07     39.43    163.00     13.74     13.18
04/23 20:00      0.00      0.00    633.25    685213    482.81      -901      -901     65.70    297.80      0.51     52.86     19.00     13.74     13.18
04/23 21:00      0.00      0.00    633.25    685213    482.81      -901      -901     59.88    242.50      0.29     74.11      1.00     13.74     13.18
04/23 22:00      ----      ----      ----      ----      ----      ----      ----      ----      ----      ----      ----      ----      ----      ----
04/23 23:00      ----      ----      ----      ----      ----      ----      ----      ----      ----      ----      ----      ----      ----      ----